createdAt,value
2023-01-04T00:01:10.938Z,51.45
2023-01-04T00:03:37.647Z,51.80
2023-01-04T00:06:06.397Z,49.88
2023-01-04T00:08:34.146Z,50.75
2023-01-04T00:11:06.677Z,50.75
2023-01-04T00:13:33.965Z,51.30
2023-01-04T00:16:08.140Z,50.33
2023-01-04T00:18:36.826Z,49.42
2023-01-04T00:21:15.058Z,50.13
2023-01-04T00:23:44.695Z,48.60
2023-01-04T00:26:16.302Z,49.53
2023-01-04T00:28:48.425Z,48.42
2023-01-04T00:31:18.725Z,49.70
2023-01-04T00:33:45.371Z,49.88
2023-01-04T00:36:14.144Z,49.03
2023-01-04T00:38:41.925Z,48.95
2023-01-04T00:41:56.984Z,48.22
2023-01-04T00:43:59.909Z,46.03
2023-01-04T00:46:26.638Z,47.47
2023-01-04T00:48:58.220Z,47.53
2023-01-04T00:51:28.333Z,47.42
2023-01-04T00:53:54.990Z,49.10
2023-01-04T00:56:21.890Z,49.70
2023-01-04T00:58:48.779Z,49.45
2023-01-04T01:01:15.465Z,50.88
2023-01-04T01:03:44.477Z,51.67
2023-01-04T01:06:12.522Z,48.78
2023-01-04T01:08:39.810Z,50.47
2023-01-04T01:11:10.554Z,48.60
2023-01-04T01:13:38.419Z,47.90
2023-01-04T01:16:14.592Z,47.00
2023-01-04T01:18:43.367Z,47.33
2023-01-04T01:21:19.108Z,48.80
2023-01-04T01:23:46.675Z,44.33
2023-01-04T01:26:16.640Z,45.53
2023-01-04T01:28:43.498Z,45.17
2023-01-04T01:31:19.171Z,43.42
2023-01-04T01:33:48.385Z,43.40
2023-01-04T01:36:16.505Z,42.53
2023-01-04T01:38:43.667Z,43.38
2023-01-04T01:41:24.123Z,42.28
2023-01-04T01:44:01.248Z,40.95
2023-01-04T01:46:36.871Z,40.13
2023-01-04T01:49:21.327Z,39.95
2023-01-04T01:51:48.066Z,38.45
2023-01-04T01:54:20.976Z,38.75
2023-01-04T01:56:50.884Z,40.25
2023-01-04T01:59:18.875Z,40.60
2023-01-04T02:01:45.578Z,40.17
2023-01-04T02:04:14.580Z,39.58
2023-01-04T02:06:50.948Z,38.72
2023-01-04T02:09:21.834Z,37.75
2023-01-04T02:11:48.525Z,36.80
2023-01-04T02:14:27.091Z,37.90
2023-01-04T02:16:56.570Z,36.35
2023-01-04T02:19:47.853Z,36.30
2023-01-04T02:22:49.071Z,37.22
2023-01-04T02:25:58.689Z,36.90
2023-01-04T02:28:28.171Z,36.25
2023-01-04T02:31:12.011Z,36.63
2023-01-04T02:34:05.551Z,36.45
2023-01-04T02:37:05.274Z,34.63
2023-01-04T02:39:31.758Z,36.17
2023-01-04T02:42:09.515Z,35.35
2023-01-04T02:45:04.477Z,34.53
2023-01-04T02:47:54.562Z,37.72
2023-01-04T02:50:31.301Z,34.72
2023-01-04T02:53:33.509Z,35.28
2023-01-04T02:56:10.246Z,34.50
2023-01-04T02:58:55.079Z,33.88
2023-01-04T03:02:13.028Z,33.33
2023-01-04T03:05:14.809Z,32.22
2023-01-04T03:07:52.654Z,31.55
2023-01-04T03:10:43.972Z,31.77
2023-01-04T03:13:33.783Z,34.15
2023-01-04T03:16:08.995Z,31.92
2023-01-04T03:18:40.600Z,32.85
2023-01-04T03:21:09.781Z,31.35
2023-01-04T03:23:56.798Z,27.88
2023-01-04T03:26:52.323Z,29.17
2023-01-04T03:29:50.510Z,27.67
2023-01-04T03:32:43.916Z,27.80
2023-01-04T03:35:22.979Z,30.00
2023-01-04T03:38:12.442Z,28.25
2023-01-04T03:41:00.593Z,27.88
2023-01-04T03:43:58.008Z,27.50
2023-01-04T03:47:11.774Z,28.75
2023-01-04T03:49:43.719Z,27.95
2023-01-04T03:52:12.896Z,27.73
2023-01-04T03:54:43.229Z,28.08
2023-01-04T03:57:12.127Z,29.02
2023-01-04T03:59:45.752Z,28.50
2023-01-04T04:02:19.469Z,29.48
2023-01-04T04:05:04.796Z,30.47
2023-01-04T04:07:50.139Z,30.48
2023-01-04T04:10:16.832Z,30.85
2023-01-04T04:12:43.373Z,30.23
2023-01-04T04:15:10.265Z,30.70
2023-01-04T04:17:36.970Z,31.00
2023-01-04T04:20:03.810Z,30.73
2023-01-04T04:22:30.372Z,30.92
2023-01-04T04:24:56.943Z,29.92
2023-01-04T04:27:23.487Z,31.73
2023-01-04T04:29:50.119Z,30.80
2023-01-04T04:32:16.705Z,30.85
2023-01-04T04:34:43.343Z,29.65
2023-01-04T04:37:09.922Z,29.02
2023-01-04T04:39:36.519Z,29.05
2023-01-04T04:42:03.231Z,29.45
2023-01-04T04:44:29.831Z,29.23
2023-01-04T04:46:56.471Z,28.08
2023-01-04T04:49:23.017Z,30.35
2023-01-04T04:51:49.617Z,30.58
2023-01-04T04:54:19.330Z,28.85
2023-01-04T04:56:46.524Z,29.02
2023-01-04T04:59:13.110Z,27.33
2023-01-04T05:01:39.814Z,29.33
2023-01-04T05:04:06.846Z,26.67
2023-01-04T05:06:33.849Z,26.50
2023-01-04T05:09:00.625Z,27.23
2023-01-04T05:11:47.439Z,27.02
2023-01-04T05:14:14.037Z,27.23
2023-01-04T05:16:40.721Z,25.50
2023-01-04T05:19:07.343Z,27.35
2023-01-04T05:21:33.907Z,25.60
2023-01-04T05:24:00.507Z,26.42
2023-01-04T05:26:27.096Z,25.80
2023-01-04T05:28:54.437Z,26.42
2023-01-04T05:31:21.683Z,25.20
2023-01-04T05:33:48.367Z,25.38
2023-01-04T05:36:14.962Z,26.52
2023-01-04T05:38:41.632Z,26.27
2023-01-04T05:41:28.366Z,26.48
2023-01-04T05:43:55.188Z,29.65
2023-01-04T05:46:22.010Z,28.35
2023-01-04T05:48:48.692Z,31.92
2023-01-04T05:51:15.207Z,31.85
2023-01-04T05:53:41.748Z,32.85
2023-01-04T05:56:08.529Z,33.95
2023-01-04T05:58:35.184Z,34.78
2023-01-04T06:01:01.748Z,35.65
2023-01-04T06:03:28.386Z,40.33
2023-01-04T06:05:55.135Z,39.65
2023-01-04T06:08:21.744Z,37.15
2023-01-04T06:10:57.360Z,34.83
2023-01-04T06:13:23.960Z,31.23
2023-01-04T06:15:50.508Z,30.42
2023-01-04T06:18:17.111Z,32.83
2023-01-04T06:20:43.946Z,32.42
2023-01-04T06:23:10.980Z,31.00
2023-01-04T06:25:38.182Z,29.20
2023-01-04T06:28:04.778Z,29.17
2023-01-04T06:30:31.674Z,28.83
2023-01-04T06:32:58.307Z,30.92
2023-01-04T06:35:24.870Z,29.30
2023-01-04T06:37:51.489Z,29.88
2023-01-04T06:40:18.340Z,31.92
2023-01-04T06:42:44.940Z,33.25
2023-01-04T06:45:12.657Z,33.70
2023-01-04T06:47:41.879Z,31.88
2023-01-04T06:50:09.747Z,32.15
2023-01-04T06:52:36.426Z,30.38
2023-01-04T06:55:03.014Z,30.35
2023-01-04T06:57:30.793Z,31.95
2023-01-04T06:59:57.435Z,32.85
2023-01-04T07:02:24.144Z,32.45
2023-01-04T07:04:50.922Z,32.35
2023-01-04T07:07:17.559Z,31.00
2023-01-04T07:09:44.175Z,32.17
2023-01-04T07:12:10.705Z,31.92
2023-01-04T07:14:37.323Z,34.58
2023-01-04T07:17:03.909Z,31.58
2023-01-04T07:19:30.506Z,31.20
2023-01-04T07:21:58.812Z,30.48
2023-01-04T07:24:30.012Z,30.92
2023-01-04T07:26:59.108Z,31.70
2023-01-04T07:29:25.803Z,32.80
2023-01-04T07:31:53.111Z,33.80
2023-01-04T07:34:22.878Z,32.15
2023-01-04T07:36:49.902Z,32.72
2023-01-04T07:39:18.206Z,30.00
2023-01-04T07:41:45.918Z,32.00
2023-01-04T07:44:13.335Z,30.92
2023-01-04T07:46:40.402Z,32.00
2023-01-04T07:49:16.364Z,32.83
2023-01-04T07:51:44.740Z,32.25
2023-01-04T07:54:11.839Z,32.10
2023-01-04T07:56:38.462Z,33.28
2023-01-04T07:59:09.211Z,33.25
2023-01-04T08:01:38.020Z,33.05
2023-01-04T08:04:06.272Z,32.90
2023-01-04T08:06:33.999Z,33.75
2023-01-04T08:09:01.278Z,33.80
2023-01-04T08:11:28.033Z,33.20
2023-01-04T08:13:54.739Z,32.00
2023-01-04T08:16:31.897Z,38.00
2023-01-04T08:19:00.979Z,40.67
2023-01-04T08:21:29.546Z,37.00
2023-01-04T08:23:56.200Z,35.17
2023-01-04T08:26:22.851Z,52.20
2023-01-04T08:28:50.842Z,54.60
2023-01-04T08:31:20.643Z,41.30
2023-01-04T08:33:48.275Z,46.17
2023-01-04T08:36:24.373Z,50.63
2023-01-04T08:39:01.002Z,63.85
2023-01-04T08:44:15.562Z,42.10
2023-01-04T08:46:42.164Z,47.33
2023-01-04T08:49:08.855Z,86.57
2023-01-04T08:51:35.426Z,73.57
2023-01-04T08:54:02.004Z,54.05
2023-01-04T08:56:28.573Z,33.92
2023-01-04T08:58:55.171Z,32.28
2023-01-04T09:01:21.961Z,32.25
2023-01-04T09:03:48.614Z,35.67
2023-01-04T09:06:16.799Z,39.63
2023-01-04T09:08:44.416Z,40.28
2023-01-04T09:11:17.188Z,34.90
2023-01-04T09:13:44.479Z,33.40
2023-01-04T09:16:17.021Z,31.52
2023-01-04T09:18:44.635Z,38.25
2023-01-04T09:21:17.383Z,37.67
2023-01-04T09:23:44.943Z,32.25
2023-01-04T09:26:17.540Z,27.50
2023-01-04T09:28:44.644Z,25.08
2023-01-04T09:31:17.915Z,23.23
2023-01-04T09:34:13.407Z,23.35
2023-01-04T09:36:32.491Z,22.88
2023-01-04T09:38:59.084Z,24.42
2023-01-04T09:41:28.590Z,21.33
2023-01-04T09:43:58.648Z,20.88
2023-01-04T09:46:39.219Z,21.50
2023-01-04T09:49:16.633Z,22.30
2023-01-04T09:51:52.953Z,21.23
2023-01-04T09:54:22.892Z,18.60
2023-01-04T09:56:53.415Z,18.08
2023-01-04T09:59:27.138Z,16.50
2023-01-04T10:02:04.263Z,18.02
2023-01-04T10:04:46.192Z,16.42
2023-01-04T10:07:27.177Z,17.13
2023-01-04T10:09:54.512Z,16.58
2023-01-04T10:12:24.005Z,17.42
2023-01-04T10:15:27.874Z,17.95
2023-01-04T10:24:15.954Z,15.75
2023-01-04T10:26:48.518Z,14.32
2023-01-04T10:29:26.964Z,16.38
2023-01-04T10:32:15.269Z,16.02
2023-01-04T10:34:43.841Z,17.38
2023-01-04T10:37:21.067Z,16.70
2023-01-04T10:39:52.647Z,15.73
2023-01-04T10:42:30.790Z,16.00
2023-01-04T10:45:27.317Z,15.23
2023-01-04T10:48:02.550Z,15.00
2023-01-04T10:50:41.282Z,16.75
2023-01-04T10:53:37.821Z,15.27
2023-01-04T10:56:29.043Z,15.85
2023-01-04T10:59:22.707Z,15.90
2023-01-04T11:01:59.314Z,15.77
2023-01-04T11:04:32.568Z,15.65
2023-01-04T11:07:18.632Z,15.82
2023-01-04T11:09:50.147Z,14.85
2023-01-04T11:12:20.351Z,17.00
2023-01-04T11:14:47.156Z,14.75
2023-01-04T11:17:14.016Z,14.93
2023-01-04T11:19:41.561Z,15.05
2023-01-04T11:22:16.298Z,13.95
2023-01-04T11:25:00.701Z,14.18
2023-01-04T11:27:46.326Z,15.30
2023-01-04T11:30:24.961Z,13.80
2023-01-04T11:33:03.456Z,13.55
2023-01-04T11:35:42.703Z,13.45
2023-01-04T11:38:15.391Z,13.48
2023-01-04T11:40:53.764Z,13.75
2023-01-04T11:43:22.607Z,13.55
2023-01-04T11:46:00.679Z,13.75
2023-01-04T11:48:40.809Z,13.20
2023-01-04T11:51:17.291Z,13.88
2023-01-04T11:53:44.043Z,13.82
2023-01-04T11:56:10.616Z,12.80
2023-01-04T11:58:37.946Z,12.65
2023-01-04T12:01:05.382Z,12.82
2023-01-04T12:03:34.572Z,12.63
2023-01-04T12:06:01.193Z,11.30
2023-01-04T12:08:31.273Z,12.68
2023-01-04T12:10:59.569Z,12.50
2023-01-04T12:13:26.397Z,12.73
2023-01-04T12:16:18.581Z,12.32
2023-01-04T12:18:45.684Z,11.85
2023-01-04T12:21:19.796Z,11.55
2023-01-04T12:23:47.673Z,11.48
2023-01-04T12:26:15.020Z,11.07
2023-01-04T12:29:12.107Z,11.93
2023-01-04T12:31:38.691Z,12.55
2023-01-04T12:34:27.967Z,11.25
2023-01-04T12:37:04.753Z,11.13
2023-01-04T12:39:44.335Z,12.65
2023-01-04T12:42:17.597Z,11.63
2023-01-04T12:44:44.270Z,11.75
2023-01-04T12:47:47.495Z,12.60
2023-01-04T12:50:31.056Z,11.77
2023-01-04T12:53:29.017Z,11.73
2023-01-04T12:55:53.438Z,11.48
2023-01-04T12:59:23.629Z,11.85
2023-01-04T13:01:27.958Z,10.45
2023-01-04T13:04:04.726Z,11.38
2023-01-04T13:06:39.567Z,10.82
2023-01-04T13:09:24.916Z,10.55
2023-01-04T13:12:07.722Z,10.50
2023-01-04T13:15:01.952Z,12.10
2023-01-04T13:17:40.161Z,11.30
2023-01-04T13:20:15.793Z,10.57
2023-01-04T13:22:50.109Z,11.52
2023-01-04T13:25:18.843Z,10.68
2023-01-04T13:27:59.927Z,10.13
2023-01-04T13:30:29.500Z,10.70
2023-01-04T13:33:25.038Z,12.77
2023-01-04T13:35:42.695Z,12.50
2023-01-04T13:38:16.464Z,13.45
2023-01-04T13:40:49.308Z,13.52
2023-01-04T13:43:16.258Z,15.47
2023-01-04T13:45:50.450Z,15.80
2023-01-04T13:50:59.873Z,15.38
2023-01-04T13:53:28.838Z,15.60
2023-01-04T13:55:58.055Z,15.27
2023-01-04T13:58:30.885Z,15.15
2023-01-04T14:01:15.711Z,17.02
2023-01-04T14:03:49.198Z,17.85
2023-01-04T14:06:19.307Z,18.05
2023-01-04T14:09:00.831Z,16.83
2023-01-04T14:11:52.489Z,17.98
2023-01-04T14:14:42.379Z,19.40
2023-01-04T14:17:23.165Z,19.73
2023-01-04T14:20:23.304Z,22.02
2023-01-04T14:22:52.402Z,23.77
2023-01-04T14:25:34.155Z,25.27
2023-01-04T14:28:19.455Z,26.52
2023-01-04T14:30:47.633Z,28.17
2023-01-04T14:33:19.801Z,28.15
2023-01-04T14:35:48.992Z,29.27
2023-01-04T14:38:19.114Z,27.30
2023-01-04T14:40:45.900Z,29.00
2023-01-04T14:43:43.045Z,30.13
2023-01-04T14:46:09.931Z,26.55
2023-01-04T14:48:36.620Z,24.88
2023-01-04T14:51:05.176Z,26.38
2023-01-04T14:53:32.227Z,24.17
2023-01-04T14:55:59.398Z,24.67
2023-01-04T14:58:26.003Z,24.55
2023-01-04T15:00:52.538Z,24.50
2023-01-04T15:03:19.311Z,24.80
2023-01-04T15:05:46.858Z,28.83
2023-01-04T15:08:13.728Z,27.50
2023-01-04T15:10:40.348Z,31.00
2023-01-04T15:13:07.454Z,36.03
2023-01-04T15:15:34.272Z,36.13
2023-01-04T15:18:00.983Z,39.72
2023-01-04T15:20:27.576Z,43.08
2023-01-04T15:22:54.189Z,40.97
2023-01-04T15:25:20.895Z,42.13
2023-01-04T15:27:47.525Z,42.50
2023-01-04T15:30:14.671Z,42.65
2023-01-04T15:32:41.655Z,41.38
2023-01-04T15:35:08.747Z,41.08
2023-01-04T15:37:35.338Z,40.42
2023-01-04T15:40:03.524Z,41.03
2023-01-04T15:42:49.143Z,40.28
2023-01-04T15:45:15.860Z,36.80
2023-01-04T15:47:42.468Z,34.80
2023-01-04T15:50:09.344Z,39.75
2023-01-04T15:52:35.944Z,43.78
2023-01-04T15:55:02.617Z,52.10
2023-01-04T15:57:29.396Z,58.67
2023-01-04T15:59:56.037Z,61.50
2023-01-04T16:02:22.772Z,59.67
2023-01-04T16:04:50.431Z,61.08
2023-01-04T16:07:17.689Z,57.72
2023-01-04T16:09:44.488Z,51.75
2023-01-04T16:12:30.014Z,50.45
2023-01-04T16:14:56.608Z,53.47
2023-01-04T16:17:23.215Z,57.80
2023-01-04T16:19:49.851Z,56.90
2023-01-04T16:22:16.518Z,59.33
2023-01-04T16:25:09.714Z,68.82
2023-01-04T16:27:35.468Z,77.18
2023-01-04T16:30:04.094Z,75.85
2023-01-04T16:32:30.928Z,72.15
2023-01-04T16:34:57.629Z,66.53
2023-01-04T16:37:28.871Z,73.65
2023-01-04T16:40:10.847Z,76.55
2023-01-04T16:42:38.806Z,79.30
2023-01-04T16:45:06.610Z,83.68
2023-01-04T16:47:41.205Z,84.05
2023-01-04T16:50:09.621Z,68.20
2023-01-04T16:52:36.234Z,69.05
2023-01-04T16:55:02.918Z,63.90
2023-01-04T16:57:29.483Z,48.53
2023-01-04T16:59:56.198Z,48.90
2023-01-04T17:02:23.437Z,48.10
2023-01-04T17:04:55.343Z,50.47
2023-01-04T17:07:22.470Z,51.72
2023-01-04T17:09:50.077Z,47.45
2023-01-04T17:12:46.431Z,55.63
2023-01-04T17:17:49.868Z,61.10
2023-01-04T17:20:16.518Z,68.50
2023-01-04T17:22:43.349Z,72.50
2023-01-04T17:25:10.723Z,77.20
2023-01-04T17:27:37.325Z,76.97
2023-01-04T17:30:04.757Z,85.88
2023-01-04T17:32:31.273Z,82.47
2023-01-04T17:34:58.747Z,86.93
2023-01-04T17:37:25.705Z,94.80
2023-01-04T17:39:52.478Z,94.55
2023-01-04T17:42:19.082Z,88.28
2023-01-04T17:44:48.144Z,84.50
2023-01-04T17:47:14.764Z,88.80
2023-01-04T17:49:41.478Z,95.07
2023-01-04T17:52:08.966Z,89.55
2023-01-04T17:54:36.204Z,91.50
2023-01-04T17:57:02.868Z,92.53
2023-01-04T17:59:29.412Z,90.13
2023-01-04T18:01:56.129Z,88.50
2023-01-04T18:04:22.733Z,90.32
2023-01-04T18:06:49.311Z,88.50
2023-01-04T18:09:18.592Z,84.88
2023-01-04T18:11:49.156Z,79.88
2023-01-04T18:14:15.843Z,74.18
2023-01-04T18:16:58.693Z,71.55
2023-01-04T18:19:28.651Z,66.95
2023-01-04T18:21:56.154Z,67.53
2023-01-04T18:24:36.035Z,68.65
2023-01-04T18:27:22.584Z,65.07
2023-01-04T18:29:50.973Z,63.10
2023-01-04T18:32:17.810Z,62.38
2023-01-04T18:34:44.461Z,56.15
2023-01-04T18:37:11.131Z,68.03
2023-01-04T18:39:37.774Z,69.50
2023-01-04T18:42:04.378Z,69.57
2023-01-04T18:44:33.828Z,60.72
2023-01-04T18:47:02.683Z,65.18
2023-01-04T18:49:29.410Z,59.50
2023-01-04T18:51:56.174Z,59.90
2023-01-04T18:54:22.995Z,67.60
2023-01-04T18:56:49.588Z,64.57
2023-01-04T18:59:19.404Z,66.35
2023-01-04T19:01:46.352Z,64.45
2023-01-04T19:04:13.634Z,58.50
2023-01-04T19:06:41.033Z,52.65
2023-01-04T19:09:08.116Z,48.35
2023-01-04T19:11:35.885Z,45.97
2023-01-04T19:14:03.065Z,41.75
2023-01-04T19:16:31.371Z,41.38
2023-01-04T19:18:59.956Z,37.80
2023-01-04T19:21:26.958Z,40.17
2023-01-04T19:23:53.959Z,40.55
2023-01-04T19:26:21.478Z,38.75
2023-01-04T19:28:48.543Z,38.42
2023-01-04T19:31:16.186Z,40.08
2023-01-04T19:33:42.918Z,38.92
2023-01-04T19:36:11.978Z,41.40
2023-01-04T19:38:38.954Z,39.95
2023-01-04T19:41:06.860Z,42.30
2023-01-04T19:43:33.924Z,44.33
2023-01-04T19:46:00.725Z,43.97
2023-01-04T19:48:27.552Z,45.15
2023-01-04T19:51:08.748Z,43.42
2023-01-04T19:53:35.679Z,41.22
2023-01-04T19:56:02.423Z,41.05
2023-01-04T19:58:29.360Z,40.72
2023-01-04T20:00:56.045Z,45.03
2023-01-04T20:03:23.670Z,43.58
2023-01-04T20:05:50.419Z,50.03
2023-01-04T20:08:17.061Z,47.85
2023-01-04T20:10:43.933Z,41.85
2023-01-04T20:13:10.580Z,49.67
2023-01-04T20:15:39.317Z,45.20
2023-01-04T20:18:13.369Z,44.83
2023-01-04T20:20:46.793Z,42.78
2023-01-04T20:23:14.487Z,41.17
2023-01-04T20:25:43.294Z,39.80
2023-01-04T20:28:10.385Z,38.65
2023-01-04T20:30:37.950Z,40.58
2023-01-04T20:33:05.116Z,40.13
2023-01-04T20:35:31.804Z,39.63
2023-01-04T20:37:58.947Z,39.85
2023-01-04T20:40:27.034Z,38.00
2023-01-04T20:43:12.659Z,40.63
2023-01-04T20:45:43.530Z,39.03
2023-01-04T20:48:10.283Z,39.25
2023-01-04T20:50:37.371Z,38.10
2023-01-04T20:53:04.426Z,42.05
2023-01-04T20:55:30.980Z,41.78
2023-01-04T20:57:57.569Z,41.80
2023-01-04T21:00:24.582Z,40.83
2023-01-04T21:02:51.377Z,40.88
2023-01-04T21:05:18.260Z,40.92
2023-01-04T21:07:44.798Z,39.22
2023-01-04T21:10:11.428Z,41.42
2023-01-04T21:12:38.813Z,42.60
2023-01-04T21:15:06.660Z,40.83
2023-01-04T21:17:33.228Z,40.67
2023-01-04T21:19:59.834Z,42.78
2023-01-04T21:22:26.886Z,43.70
2023-01-04T21:24:53.463Z,44.78
2023-01-04T21:27:20.052Z,45.53
2023-01-04T21:29:46.603Z,43.97
2023-01-04T21:32:13.168Z,44.25
2023-01-04T21:34:39.768Z,45.78
2023-01-04T21:37:06.473Z,44.92
2023-01-04T21:39:33.270Z,44.90
2023-01-04T21:41:59.872Z,45.42
2023-01-04T21:44:26.502Z,44.67
2023-01-04T21:46:53.159Z,43.90
2023-01-04T21:49:19.861Z,42.05
2023-01-04T21:51:46.433Z,44.30
2023-01-04T21:54:13.150Z,42.42
2023-01-04T21:56:39.704Z,39.72
2023-01-04T21:59:06.339Z,40.95
2023-01-04T22:01:35.394Z,39.67
2023-01-04T22:04:02.935Z,43.08
2023-01-04T22:06:29.758Z,42.05
2023-01-04T22:08:56.511Z,43.97
2023-01-04T22:11:23.098Z,41.50
2023-01-04T22:13:50.703Z,41.08
2023-01-04T22:16:18.093Z,42.20
2023-01-04T22:18:51.161Z,41.55
2023-01-04T22:21:20.119Z,43.22
2023-01-04T22:23:46.961Z,46.53
2023-01-04T22:26:13.534Z,47.85
2023-01-04T22:28:40.424Z,50.10
2023-01-04T22:31:08.885Z,53.17
2023-01-04T22:33:36.686Z,52.95
2023-01-04T22:36:08.206Z,46.30
2023-01-04T22:38:36.067Z,44.72
2023-01-04T22:41:11.065Z,44.92
2023-01-04T22:43:37.637Z,43.35
2023-01-04T22:46:07.117Z,43.08
2023-01-04T22:48:34.799Z,41.70
2023-01-04T22:51:06.619Z,43.80
2023-01-04T22:53:33.299Z,44.65
2023-01-04T22:56:22.447Z,42.10
2023-01-04T22:58:54.288Z,39.38
2023-01-04T23:01:30.783Z,41.65
2023-01-04T23:03:59.542Z,43.53
2023-01-04T23:06:28.033Z,42.45
2023-01-04T23:08:59.709Z,42.78
2023-01-04T23:11:27.588Z,42.95
2023-01-04T23:13:55.142Z,43.42
2023-01-04T23:16:27.866Z,44.25
2023-01-04T23:18:58.515Z,41.13
2023-01-04T23:21:25.051Z,41.35
2023-01-04T23:23:51.611Z,41.13
2023-01-04T23:26:21.051Z,40.53
2023-01-04T23:28:48.622Z,45.80
2023-01-04T23:31:18.497Z,45.15
2023-01-04T23:33:45.117Z,45.88
2023-01-04T23:36:22.699Z,41.05
2023-01-04T23:38:52.369Z,46.03
2023-01-04T23:41:19.458Z,43.30
2023-01-04T23:43:46.125Z,41.95
2023-01-04T23:46:15.282Z,44.22
2023-01-04T23:48:42.663Z,42.00
2023-01-04T23:51:10.099Z,42.97
2023-01-04T23:53:36.687Z,40.63
2023-01-04T23:56:06.882Z,37.92
2023-01-04T23:58:34.123Z,43.05
